Airfield :
LOGIN :

Register | Disclaimer

   EN    FR    IT 

 










Legend :    VFR   Marginal VFR   IFR   Intensive IFR   Very Intensive IFR
Visi :
Ceiling :
>= 8 km
>= 3000ft
5 to 8 km
1000 to 3000 ft
1500m to 5 km
500 to 1000 ft
800 to 1500m
200 to 500 ft
< 800m
< 200 ft
Symbols :   Thunderstorms  Fog  Heavy snow  Heavy precipitations  Wind > 20 kt
SIGMETs :     Misc.  Thunderstorms  Icing  Turbulence  Mountain Waves  Volcanic Ashes






- Airport Elevation : 788 ft
- IATA code : DCM


LFCK - Castres-Mazamet

CURRENT METAR :
  • 070730Z AUTO 28011KT 260V320 CAVOK 20/13 Q1026 NOSIG

EXPIRED METARs :
  • 070700Z AUTO 27010KT 9999 BKN019 19/14 Q1026 NOSIG
  • 070630Z AUTO 28010KT 9999 SCT016 19/14 Q1026 NOSIG
  • 070600Z AUTO 27010KT CAVOK 18/15 Q1026 TEMPO BKN013
  • 070530Z AUTO 30005KT 270V340 CAVOK 17/15 Q1026
  • 070500Z AUTO 29004KT CAVOK 17/14 Q1025

TAF TAF LFCK
Valid from the 07 at 06:00 until the 07 at 15:00 UTC


070500Z 0706/0715 30010KT CAVOK
PROB30
TEMPO 0706/0707 BKN013
TEMPO 0710/0715 31015G25KT



MET'MAP, your aeronautical weather chart ! - Copyright ORBIFLY December 2007 - Disclaimer

ORBIFLY MET'MAP TEAM :

Programming & Development : Alexandra Zaïnal
Original concept : Baudouin d'Aumeries
Technical & hardware support : Manuel Goepfert
Assistance : Marc-Olivier Méhu




SOURCES & CREDITS :

   NOAA